Ashley, Pennsylvania
Current Conditions -  °F | °C
As of 3:38 PM on Wednesday 26 Nov 2014 (Local Time) from KAVP Reporting Station
Light Snow Light Snow  
Wind Chill: 25°   Ceiling: 1100
Heat Index: 33°   Visibility: 0.75mi
Dew Point: 31°   Wind: 10mph
Humidity: 92%   Direction: 280°W
Pressure: 29.95"   Gusts: NA
Location:  41.1921°N, 75.9213°W
Report Text: KAVP 262038Z 28009KT 3/4SM R04/P6000FT -SN BR SCT006 OVC011 01/M01 A2995 RMK AO2 P0002 T00061006
Loading
Personal Weather Stations






























Interactive Weather Map New forecast layout! Learn more

10-Day Weather Forecast

Advertisements
Track Severe Weather on mobile